createdAt,value
2023-03-17T00:01:56.042Z,100629.16
2023-03-17T00:06:59.779Z,100630.88
2023-03-17T00:12:01.678Z,100630.81
2023-03-17T00:17:03.607Z,100621.34
2023-03-17T00:22:13.570Z,100619.56
2023-03-17T00:27:16.854Z,100611.03
2023-03-17T00:32:19.386Z,100605.72
2023-03-17T00:37:22.957Z,100603.09
2023-03-17T00:42:24.672Z,100601.47
2023-03-17T00:47:26.681Z,100591.00
2023-03-17T00:52:29.706Z,100590.13
2023-03-17T00:57:31.401Z,100575.34
2023-03-17T01:02:33.289Z,100579.72
2023-03-17T01:07:37.105Z,100586.72
2023-03-17T01:12:38.943Z,100567.66
2023-03-17T01:17:41.691Z,100568.41
2023-03-17T01:22:45.202Z,100563.94
2023-03-17T01:27:47.081Z,100568.25
2023-03-17T01:32:48.918Z,100564.78
2023-03-17T01:37:52.245Z,100559.59
2023-03-17T01:42:54.829Z,100561.25
2023-03-17T01:47:56.561Z,100555.25
2023-03-17T01:52:59.564Z,100547.34
2023-03-17T01:58:01.344Z,100546.50
2023-03-17T02:03:03.850Z,100539.38
2023-03-17T02:08:11.106Z,100553.28
2023-03-17T02:13:12.985Z,100559.47
2023-03-17T02:18:15.424Z,100558.50
2023-03-17T02:23:21.027Z,100563.63
2023-03-17T02:28:25.885Z,100547.97
2023-03-17T02:33:27.719Z,100531.44
2023-03-17T02:38:31.784Z,100533.91
2023-03-17T02:43:35.823Z,100544.41
2023-03-17T02:48:37.989Z,100528.94
2023-03-17T02:53:41.067Z,100511.41
2023-03-17T02:58:42.812Z,100500.03
2023-03-17T03:03:44.548Z,100506.06
2023-03-17T03:08:47.769Z,100525.91
2023-03-17T03:13:49.641Z,100545.91
2023-03-17T03:18:51.502Z,100561.66
2023-03-17T03:23:54.811Z,100543.63
2023-03-17T03:28:58.347Z,100542.63
2023-03-17T03:34:00.215Z,100550.38
2023-03-17T03:39:03.499Z,100551.19
2023-03-17T03:44:05.554Z,100549.38
2023-03-17T03:49:07.439Z,100529.91
2023-03-17T03:54:10.463Z,100535.78
2023-03-17T03:59:12.594Z,100531.25
2023-03-17T04:04:14.276Z,100520.88
2023-03-17T04:09:17.530Z,100520.78
2023-03-17T04:14:19.497Z,100516.34
2023-03-17T04:19:24.039Z,100506.97
2023-03-17T04:24:27.734Z,100508.59
2023-03-17T04:29:29.553Z,100515.56
2023-03-17T04:34:31.287Z,100504.16
2023-03-17T04:39:34.342Z,100502.84
2023-03-17T04:44:36.512Z,100483.00
2023-03-17T04:49:38.437Z,100477.81
2023-03-17T04:54:42.189Z,100460.66
2023-03-17T04:59:44.197Z,100461.31
2023-03-17T05:04:46.109Z,100465.56
2023-03-17T05:09:49.160Z,100475.13
2023-03-17T05:14:50.882Z,100469.09
2023-03-17T05:19:52.614Z,100473.38
2023-03-17T05:24:55.673Z,100461.31
2023-03-17T05:29:57.658Z,100468.22
2023-03-17T05:34:59.429Z,100472.56
2023-03-17T05:40:03.073Z,100461.06
2023-03-17T05:45:05.704Z,100472.34
2023-03-17T05:50:09.407Z,100469.75
2023-03-17T05:55:12.447Z,100469.69
2023-03-17T06:00:16.181Z,100464.53
2023-03-17T06:05:18.031Z,100446.63
2023-03-17T06:10:21.407Z,100451.84
2023-03-17T06:15:23.116Z,100443.56
2023-03-17T06:20:25.078Z,100438.63
2023-03-17T06:25:28.272Z,100432.00
2023-03-17T06:30:30.528Z,100430.66
2023-03-17T06:35:33.202Z,100435.41
2023-03-17T06:40:36.921Z,100440.75
2023-03-17T06:45:38.869Z,100443.78
2023-03-17T06:50:40.649Z,100439.59
2023-03-17T06:55:43.745Z,100437.50
2023-03-17T07:00:45.490Z,100443.97
2023-03-17T07:05:47.719Z,100435.44
2023-03-17T07:10:51.445Z,100426.06
2023-03-17T07:15:55.361Z,100435.28
2023-03-17T07:20:57.371Z,100430.94
2023-03-17T07:26:00.536Z,100441.47
2023-03-17T07:31:02.796Z,100427.09
2023-03-17T07:36:07.089Z,100425.31
2023-03-17T07:41:10.822Z,100422.41
2023-03-17T07:46:12.715Z,100418.28
2023-03-17T07:51:15.443Z,100421.78
2023-03-17T07:56:18.506Z,100423.34
2023-03-17T08:01:20.219Z,100418.25
2023-03-17T08:06:22.096Z,100418.03
2023-03-17T08:11:25.112Z,100412.28
2023-03-17T08:16:27.559Z,100407.63
2023-03-17T08:21:29.288Z,100405.16
2023-03-17T08:26:32.499Z,100394.66
2023-03-17T08:31:34.383Z,100390.09
2023-03-17T08:36:36.123Z,100373.63
2023-03-17T08:41:39.150Z,100388.00
2023-03-17T08:46:40.934Z,100396.31
2023-03-17T08:51:43.928Z,100395.09
2023-03-17T08:56:47.006Z,100402.13
2023-03-17T09:01:48.741Z,100403.31
2023-03-17T09:07:02.869Z,100395.78
2023-03-17T09:12:07.322Z,100397.13
2023-03-17T09:17:09.624Z,100383.22
2023-03-17T09:22:13.336Z,100389.09
2023-03-17T09:27:16.356Z,100375.72
2023-03-17T09:32:18.056Z,100374.47
2023-03-17T09:37:19.746Z,100373.22
2023-03-17T09:42:34.765Z,100364.22
2023-03-17T09:47:56.554Z,100353.16
2023-03-17T09:52:58.395Z,100351.09
2023-03-17T09:58:03.331Z,100341.31
2023-03-17T10:03:06.228Z,100336.56
2023-03-17T10:08:28.942Z,100341.09
2023-03-17T10:13:42.506Z,100346.38
2023-03-17T10:18:48.151Z,100328.03
2023-03-17T10:23:49.804Z,100327.44
2023-03-17T10:28:52.809Z,100336.63
2023-03-17T10:33:54.469Z,100336.72
2023-03-17T10:38:56.395Z,100330.59
2023-03-17T10:43:59.431Z,100326.47
2023-03-17T10:49:05.502Z,100332.44
2023-03-17T10:54:09.506Z,100334.38
2023-03-17T10:59:17.825Z,100340.72
2023-03-17T11:04:26.413Z,100319.47
2023-03-17T11:09:30.430Z,100316.03
2023-03-17T11:14:33.589Z,100319.00
2023-03-17T11:19:43.646Z,100326.88
2023-03-17T11:24:51.588Z,100331.13
2023-03-17T11:30:14.925Z,100340.00
2023-03-17T11:35:24.327Z,100333.88
2023-03-17T11:40:29.448Z,100305.28
2023-03-17T11:45:33.569Z,100304.56
2023-03-17T11:50:39.241Z,100303.47
2023-03-17T11:55:43.424Z,100291.47
2023-03-17T12:00:50.710Z,100293.53
2023-03-17T12:05:55.553Z,100291.88
2023-03-17T12:10:57.725Z,100291.00
2023-03-17T12:16:04.308Z,100282.81
2023-03-17T12:21:09.538Z,100293.97
2023-03-17T12:26:12.305Z,100282.88
2023-03-17T12:31:17.534Z,100275.31
2023-03-17T12:36:19.294Z,100259.97
2023-03-17T12:41:28.878Z,100259.63
2023-03-17T12:46:53.970Z,100251.03
2023-03-17T12:52:01.435Z,100255.97
2023-03-17T12:57:04.370Z,100256.50
2023-03-17T13:02:15.508Z,100259.03
2023-03-17T13:07:18.923Z,100250.50
2023-03-17T13:12:58.304Z,100237.75
2023-03-17T13:18:36.702Z,100234.03
2023-03-17T13:23:42.080Z,100236.53
2023-03-17T13:28:47.210Z,100234.38
2023-03-17T13:33:51.325Z,100234.63
2023-03-17T13:39:37.357Z,100232.69
2023-03-17T13:45:07.091Z,100224.88
2023-03-17T13:50:12.514Z,100217.00
2023-03-17T13:55:36.614Z,100217.22
2023-03-17T14:00:38.817Z,100224.00
2023-03-17T14:05:40.575Z,100220.03
2023-03-17T14:10:44.565Z,100215.69
2023-03-17T14:15:48.607Z,100211.00
2023-03-17T14:20:53.577Z,100211.63
2023-03-17T14:25:56.896Z,100213.59
2023-03-17T14:31:00.052Z,100204.88
2023-03-17T14:36:02.676Z,100196.22
2023-03-17T14:41:07.876Z,100190.31
2023-03-17T14:46:13.676Z,100194.22
2023-03-17T14:51:23.234Z,100192.13
2023-03-17T14:56:31.595Z,100186.56
2023-03-17T15:01:36.219Z,100181.03
2023-03-17T15:06:47.050Z,100191.13
2023-03-17T15:11:50.223Z,100177.06
2023-03-17T15:16:52.435Z,100174.59
2023-03-17T15:21:56.985Z,100176.22
2023-03-17T15:27:01.298Z,100165.81
2023-03-17T15:32:10.273Z,100150.84
2023-03-17T15:37:16.065Z,100146.03
2023-03-17T15:42:20.268Z,100144.69
2023-03-17T15:47:23.282Z,100137.66
2023-03-17T15:52:25.675Z,100161.53
2023-03-17T15:57:28.885Z,100172.31
2023-03-17T16:02:31.742Z,100169.31
2023-03-17T16:07:34.089Z,100166.06
2023-03-17T16:12:37.173Z,100156.66
2023-03-17T16:17:39.158Z,100160.50
2023-03-17T16:22:42.050Z,100146.66
2023-03-17T16:27:45.187Z,100152.22
2023-03-17T16:32:47.257Z,100152.63
2023-03-17T16:37:51.815Z,100156.41
2023-03-17T16:42:54.909Z,100152.94
2023-03-17T16:47:57.067Z,100155.47
2023-03-17T16:52:58.996Z,100144.47
2023-03-17T16:58:03.872Z,100145.38
2023-03-17T17:03:05.640Z,100152.56
2023-03-17T17:08:07.405Z,100147.59
2023-03-17T17:13:11.422Z,100151.28
2023-03-17T17:18:14.509Z,100161.16
2023-03-17T17:23:18.652Z,100159.47
2023-03-17T17:28:22.646Z,100149.00
2023-03-17T17:33:25.860Z,100152.34
2023-03-17T17:38:28.787Z,100154.06
2023-03-17T17:43:31.994Z,100156.03
2023-03-17T17:48:34.295Z,100161.41
2023-03-17T17:53:36.783Z,100161.47
2023-03-17T17:58:39.793Z,100167.00
2023-03-17T18:03:43.188Z,100174.84
2023-03-17T18:08:45.562Z,100191.81
2023-03-17T18:13:48.653Z,100195.72
2023-03-17T18:18:50.676Z,100195.16
2023-03-17T18:23:55.198Z,100207.53
2023-03-17T18:28:58.381Z,100214.97
2023-03-17T18:34:03.042Z,100215.53
2023-03-17T18:39:04.872Z,100219.34
2023-03-17T18:44:10.010Z,100218.75
2023-03-17T18:49:11.692Z,100221.69
2023-03-17T18:54:13.604Z,100208.59
2023-03-17T18:59:16.633Z,100202.50
2023-03-17T19:04:18.318Z,100192.84
2023-03-17T19:09:20.980Z,100182.41
2023-03-17T19:14:24.511Z,100178.06
2023-03-17T19:19:26.202Z,100163.22
2023-03-17T19:24:28.005Z,100164.13
2023-03-17T19:29:32.480Z,100151.16
2023-03-17T19:34:34.213Z,100137.31
2023-03-17T19:39:37.689Z,100166.16
2023-03-17T19:44:41.201Z,100168.66
2023-03-17T19:49:42.976Z,100169.56
2023-03-17T19:54:45.942Z,100166.16
2023-03-17T19:59:49.056Z,100169.69
2023-03-17T20:04:51.123Z,100157.44
2023-03-17T20:09:53.975Z,100164.47
2023-03-17T20:14:57.066Z,100151.38
2023-03-17T20:19:58.772Z,100156.81
2023-03-17T20:25:00.628Z,100165.56
2023-03-17T20:30:05.054Z,100162.91
2023-03-17T20:35:08.263Z,100164.69
2023-03-17T20:40:11.268Z,100166.38
2023-03-17T20:45:14.948Z,100175.91
2023-03-17T20:50:16.808Z,100185.44
2023-03-17T20:55:19.616Z,100162.78
2023-03-17T21:00:23.424Z,100169.13
2023-03-17T21:05:26.205Z,100176.13
2023-03-17T21:10:28.160Z,100172.59
2023-03-17T21:15:31.419Z,100168.22
2023-03-17T21:20:34.263Z,100178.69
2023-03-17T21:25:36.192Z,100166.50
2023-03-17T21:30:42.159Z,100170.78
2023-03-17T21:35:43.964Z,100159.47
2023-03-17T21:40:46.151Z,100164.75
2023-03-17T21:45:49.445Z,100163.88
2023-03-17T21:50:51.186Z,100159.56
2023-03-17T21:55:53.174Z,100163.97
2023-03-17T22:00:56.248Z,100157.91
2023-03-17T22:05:58.648Z,100144.91
2023-03-17T22:11:00.360Z,100138.94
2023-03-17T22:16:04.219Z,100135.53
2023-03-17T22:21:06.193Z,100132.84
2023-03-17T22:26:09.185Z,100138.03
2023-03-17T22:31:13.069Z,100141.47
2023-03-17T22:36:15.240Z,100151.91
2023-03-17T22:41:17.910Z,100156.25
2023-03-17T22:46:24.299Z,100160.63
2023-03-17T22:51:26.745Z,100160.72
2023-03-17T22:56:28.427Z,100163.47
2023-03-17T23:01:31.774Z,100159.19
2023-03-17T23:06:35.128Z,100162.91
2023-03-17T23:11:37.398Z,100160.34
2023-03-17T23:16:40.805Z,100154.28
2023-03-17T23:21:42.517Z,100163.81
2023-03-17T23:26:44.491Z,100169.97
2023-03-17T23:31:47.569Z,100176.94
2023-03-17T23:36:49.285Z,100177.75
2023-03-17T23:41:51.296Z,100180.34
2023-03-17T23:46:54.331Z,100177.66
2023-03-17T23:51:56.023Z,100169.78
2023-03-17T23:56:57.694Z,100177.69
